Time;durP1;ratioP1;P1;durP2;ratioP2;P2;SDS_P1;SDS_P2;PMS_P1;PMS_P2;Temp;Humidity;BMP_temperature;BMP_pressure;BME280_temperature;BME280_humidity;BME280_pressure;Samples;Min_cycle;Max_cycle;Signal;HPM_P1;HPM_P2
2022/07/17 00:02:40;;;;;;;6.27;3.80;;;16.80;99.90;18.10;97582.00;;;;5103240;28;20194;-69
2022/07/17 00:05:28;;;;;;;3.93;3.13;;;16.80;99.90;17.90;97580.00;;;;5109039;28;20233;-69
2022/07/17 00:08:17;;;;;;;3.70;3.37;;;16.70;99.90;17.70;97582.00;;;;5109515;28;20202;-69
2022/07/17 00:11:06;;;;;;;4.17;3.53;;;16.60;99.90;17.10;97586.00;;;;5109925;28;20229;-69
2022/07/17 00:13:55;;;;;;;6.17;4.60;;;16.50;99.90;17.20;97584.00;;;;5099930;28;20600;-69
2022/07/17 00:16:43;;;;;;;4.50;4.10;;;16.30;99.90;16.70;97586.00;;;;5104280;28;20214;-69
2022/07/17 00:19:34;;;;;;;4.80;4.30;;;16.10;99.90;16.70;97592.00;;;;5104916;28;20265;-69
2022/07/17 00:22:23;;;;;;;6.67;3.70;;;16.00;99.90;16.80;97591.00;;;;5105130;28;20202;-69
2022/07/17 00:25:11;;;;;;;4.43;4.03;;;15.80;99.90;16.90;97585.00;;;;5102326;28;20214;-69
2022/07/17 00:28:00;;;;;;;6.03;3.87;;;15.80;99.90;16.60;97592.00;;;;5098355;28;20202;-69
2022/07/17 00:30:49;;;;;;;4.37;3.63;;;15.80;99.90;16.70;97590.00;;;;5109686;28;20229;-69
2022/07/17 00:33:38;;;;;;;4.33;3.97;;;15.70;99.90;16.80;97587.00;;;;5105168;28;20202;-70
2022/07/17 00:36:28;;;;;;;4.20;3.53;;;15.70;99.90;16.80;97591.00;;;;5097959;28;20198;-69
2022/07/17 00:39:16;;;;;;;6.47;3.57;;;15.60;99.90;16.90;97586.00;;;;5108013;28;20865;-69
2022/07/17 00:42:05;;;;;;;4.67;4.00;;;15.60;99.90;16.40;97593.00;;;;5110149;28;20570;-69
2022/07/17 00:44:56;;;;;;;5.67;4.23;;;15.50;99.90;16.20;97591.00;;;;5104517;28;20727;-70
2022/07/17 00:47:56;;;;;;;4.87;3.90;;;15.30;99.90;16.40;97599.00;;;;5101938;28;20187;-70
2022/07/17 00:50:44;;;;;;;7.00;3.80;;;15.30;99.90;16.60;97607.00;;;;5098892;28;20717;-69
2022/07/17 00:53:36;;;;;;;5.00;4.30;;;15.30;99.90;16.80;97607.00;;;;5103041;28;20685;-69
2022/07/17 00:56:26;;;;;;;6.03;4.00;;;15.30;99.90;16.50;97613.00;;;;5095613;28;20214;-69
2022/07/17 00:59:16;;;;;;;4.40;4.00;;;15.30;99.90;16.20;97606.00;;;;5100336;28;20187;-70
2022/07/17 01:02:06;;;;;;;4.10;3.70;;;15.30;99.90;16.30;97605.00;;;;5106312;28;20211;-70
2022/07/17 01:04:54;;;;;;;5.33;4.07;;;15.20;99.90;16.20;97603.00;;;;5109496;28;20210;-69
2022/07/17 01:07:44;;;;;;;5.07;3.80;;;15.10;99.90;16.30;97610.00;;;;5107704;28;20205;-70
2022/07/17 01:10:34;;;;;;;3.87;3.50;;;15.10;99.90;16.00;97609.00;;;;5100981;28;20222;-69
2022/07/17 01:13:23;;;;;;;3.50;3.20;;;15.10;99.90;16.00;97608.00;;;;5098493;28;20210;-70
2022/07/17 01:16:11;;;;;;;5.07;4.50;;;15.00;99.90;16.00;97606.00;;;;5105814;28;20674;-69
2022/07/17 01:19:00;;;;;;;7.13;3.87;;;14.90;99.90;15.60;97601.00;;;;5105299;28;20202;-68
2022/07/17 01:21:51;;;;;;;5.87;4.43;;;14.90;99.90;16.00;97613.00;;;;5103997;28;20215;-69
2022/07/17 01:24:40;;;;;;;4.17;3.70;;;14.80;99.90;16.20;97623.00;;;;5106130;28;20574;-70
2022/07/17 01:27:29;;;;;;;4.27;3.87;;;14.80;99.90;16.30;97612.00;;;;5107981;28;20211;-69
2022/07/17 01:30:18;;;;;;;5.20;4.23;;;14.90;99.90;16.20;97614.00;;;;5109083;28;20604;-69
2022/07/17 01:33:07;;;;;;;5.23;4.17;;;14.90;99.90;15.90;97620.00;;;;5105551;28;20665;-70
2022/07/17 01:35:56;;;;;;;5.23;4.73;;;14.80;99.90;16.10;97611.00;;;;5105377;28;20205;-69
2022/07/17 01:38:46;;;;;;;5.63;3.77;;;14.80;99.90;16.00;97617.00;;;;5098793;28;20195;-69
2022/07/17 01:41:35;;;;;;;3.93;3.57;;;14.80;99.90;16.10;97612.00;;;;5108298;28;20190;-69
2022/07/17 01:44:23;;;;;;;4.17;3.77;;;14.80;99.90;16.00;97626.00;;;;5107988;28;20195;-69
2022/07/17 01:47:14;;;;;;;4.33;3.80;;;14.80;99.90;16.00;97617.00;;;;5105233;28;20752;-70
2022/07/17 01:50:05;;;;;;;4.60;4.07;;;14.70;99.90;15.80;97620.00;;;;5108284;28;20222;-69
2022/07/17 01:52:54;;;;;;;6.47;3.87;;;14.70;99.90;16.00;97621.00;;;;5107723;28;20225;-69
2022/07/17 01:55:44;;;;;;;6.07;3.70;;;14.70;99.90;15.80;97621.00;;;;5098277;28;20596;-69
2022/07/17 01:58:34;;;;;;;4.07;3.53;;;14.70;99.90;15.90;97623.00;;;;5098039;28;20697;-69
2022/07/17 02:01:22;;;;;;;5.30;4.03;;;14.70;99.90;15.60;97628.00;;;;5105519;28;20214;-70
2022/07/17 02:04:11;;;;;;;4.03;3.63;;;14.60;99.90;15.40;97636.00;;;;5106340;28;20605;-68
2022/07/17 02:07:00;;;;;;;5.17;4.00;;;14.50;99.90;14.80;97637.00;;;;5107272;28;20211;-69
2022/07/17 02:09:48;;;;;;;5.23;4.07;;;14.40;99.90;15.50;97636.00;;;;5107102;28;20223;-70
2022/07/17 02:12:39;;;;;;;8.20;4.33;;;14.30;99.90;15.70;97631.00;;;;5105425;28;20198;-69
2022/07/17 02:15:28;;;;;;;4.40;4.00;;;14.30;99.90;15.70;97647.00;;;;5107731;28;20226;-69
2022/07/17 02:18:16;;;;;;;4.00;3.67;;;14.30;99.90;15.70;97638.00;;;;5099896;28;20190;-69
2022/07/17 02:21:06;;;;;;;4.53;3.47;;;14.40;99.90;15.60;97635.00;;;;5106415;28;20230;-70
2022/07/17 02:23:54;;;;;;;5.63;3.77;;;14.40;99.90;14.90;97636.00;;;;5100806;28;20210;-69
2022/07/17 02:26:43;;;;;;;5.10;4.53;;;14.20;99.90;15.00;97644.00;;;;5107449;28;20226;-69
2022/07/17 02:29:33;;;;;;;6.07;3.90;;;14.10;99.90;15.20;97650.00;;;;5102590;28;20222;-69
2022/07/17 02:32:22;;;;;;;5.47;3.70;;;14.00;99.90;15.10;97659.00;;;;5104680;28;20592;-69
2022/07/17 02:35:12;;;;;;;4.43;4.00;;;14.00;99.90;15.10;97658.00;;;;5117508;28;20579;-69
2022/07/17 02:38:01;;;;;;;4.40;4.00;;;14.00;99.90;14.80;97662.00;;;;5097616;28;20203;-69
2022/07/17 02:40:50;;;;;;;6.17;4.83;;;13.90;99.90;14.90;97667.00;;;;5099659;28;20211;-69
2022/07/17 02:43:39;;;;;;;7.53;3.67;;;13.80;99.90;14.80;97667.00;;;;5106094;28;20590;-69
2022/07/17 02:46:30;;;;;;;4.57;3.93;;;13.80;99.90;15.30;97673.00;;;;5101754;28;20222;-69
2022/07/17 02:49:18;;;;;;;5.07;4.13;;;13.90;99.90;15.40;97682.00;;;;5103175;28;20194;-69
2022/07/17 02:52:07;;;;;;;4.27;3.87;;;13.90;99.90;15.00;97676.00;;;;5106181;28;20194;-69
2022/07/17 02:54:56;;;;;;;5.30;4.23;;;14.00;99.90;15.00;97667.00;;;;5106005;28;20239;-69
2022/07/17 02:57:46;;;;;;;6.07;4.10;;;13.90;99.90;14.40;97669.00;;;;5107337;28;20705;-69
2022/07/17 03:00:35;;;;;;;5.43;4.17;;;13.80;99.90;14.30;97674.00;;;;5107798;28;20222;-69
2022/07/17 03:03:25;;;;;;;5.47;4.07;;;13.70;99.90;13.90;97668.00;;;;5099906;28;20213;-68
2022/07/17 03:06:14;;;;;;;4.70;4.03;;;13.50;99.90;14.30;97665.00;;;;5103735;28;20222;-69
2022/07/17 03:09:02;;;;;;;4.30;3.93;;;13.50;99.90;14.40;97670.00;;;;5100004;28;20194;-69
2022/07/17 03:11:51;;;;;;;7.40;3.83;;;13.50;99.90;14.00;97677.00;;;;5108762;28;20206;-69
2022/07/17 03:14:40;;;;;;;6.60;4.53;;;13.40;99.90;14.00;97676.00;;;;5110450;28;20198;-69
2022/07/17 03:17:29;;;;;;;4.93;4.10;;;13.30;99.90;14.10;97680.00;;;;5109011;28;20217;-69
2022/07/17 03:20:19;;;;;;;4.70;4.20;;;13.30;99.90;14.50;97685.00;;;;5105752;28;20217;-70
2022/07/17 03:23:07;;;;;;;4.13;3.80;;;13.20;99.90;14.60;97691.00;;;;5103178;28;20202;-69
2022/07/17 03:25:56;;;;;;;4.37;3.97;;;13.30;99.90;14.70;97693.00;;;;5109521;28;20198;-69
2022/07/17 03:28:45;;;;;;;5.87;4.63;;;13.40;99.90;15.00;97696.00;;;;5103742;28;20207;-69
2022/07/17 03:31:34;;;;;;;5.60;3.93;;;13.50;99.90;14.90;97698.00;;;;5106499;28;20198;-69
2022/07/17 03:34:23;;;;;;;9.87;4.23;;;13.60;99.90;14.90;97698.00;;;;5115700;27;20198;-69
2022/07/17 03:37:13;;;;;;;5.63;4.00;;;13.60;99.90;14.90;97710.00;;;;5110870;27;20694;-69
2022/07/17 03:40:02;;;;;;;5.47;3.63;;;13.60;99.90;15.20;97706.00;;;;5111607;28;20226;-69
2022/07/17 03:42:50;;;;;;;4.00;3.70;;;13.70;99.90;15.40;97714.00;;;;5105945;28;20206;-69
2022/07/17 03:45:39;;;;;;;4.33;3.97;;;13.80;99.90;15.30;97719.00;;;;5105286;28;20217;-70
2022/07/17 03:48:28;;;;;;;6.37;3.97;;;13.90;99.90;14.90;97718.00;;;;5108339;28;20210;-69
2022/07/17 03:51:17;;;;;;;3.93;3.53;;;13.80;99.90;14.70;97727.00;;;;5111254;28;20215;-69
2022/07/17 03:54:07;;;;;;;4.40;3.40;;;13.80;99.90;14.90;97731.00;;;;5108092;28;20198;-69
2022/07/17 03:56:55;;;;;;;7.63;3.87;;;13.70;99.90;14.80;97728.00;;;;5109786;28;20575;-69
2022/07/17 03:59:44;;;;;;;4.00;3.57;;;13.70;99.90;14.80;97722.00;;;;5107661;28;20277;-68
2022/07/17 04:02:33;;;;;;;7.53;4.27;;;13.60;99.90;14.50;97730.00;;;;5101084;28;20206;-69
2022/07/17 04:05:22;;;;;;;5.23;3.90;;;13.60;99.90;14.50;97728.00;;;;5108513;28;20190;-69
2022/07/17 04:08:12;;;;;;;5.10;3.93;;;13.50;99.90;14.60;97734.00;;;;5108982;28;20238;-69
2022/07/17 04:11:02;;;;;;;4.40;3.97;;;13.50;99.90;14.60;97727.00;;;;5111015;28;20219;-69
2022/07/17 04:13:55;;;;;;;4.57;3.90;;;13.50;99.90;14.60;97730.00;;;;5110206;28;20224;-69
2022/07/17 04:16:44;;;;;;;3.97;3.67;;;13.50;99.90;14.90;97743.00;;;;5110733;28;20202;-69
2022/07/17 04:19:33;;;;;;;4.60;4.20;;;13.50;99.90;14.80;97738.00;;;;5103988;28;20848;-69
2022/07/17 04:22:22;;;;;;;4.67;4.10;;;13.50;99.90;14.30;97739.00;;;;5089188;28;20195;-69
2022/07/17 04:25:10;;;;;;;6.17;3.80;;;13.50;99.90;14.40;97745.00;;;;5090924;28;20203;-70
2022/07/17 04:28:00;;;;;;;5.30;3.93;;;13.40;99.90;14.40;97746.00;;;;5092690;28;20706;-69
2022/07/17 04:30:49;;;;;;;4.57;4.17;;;13.40;99.90;14.50;97750.00;;;;5090518;28;20222;-70
2022/07/17 04:33:38;;;;;;;6.33;4.37;;;13.40;99.90;14.90;97756.00;;;;5088771;28;20187;-70
2022/07/17 04:36:27;;;;;;;4.33;3.83;;;13.50;99.90;15.20;97752.00;;;;5082642;28;20200;-70
2022/07/17 04:39:16;;;;;;;4.57;4.17;;;13.50;99.90;15.40;97746.00;;;;5072317;28;20266;-69
2022/07/17 04:42:04;;;;;;;7.27;3.77;;;13.70;99.90;15.40;97750.00;;;;5084240;28;20208;-69
2022/07/17 04:44:54;;;;;;;4.13;3.47;;;13.80;99.90;15.10;97748.00;;;;5082410;28;20214;-69
2022/07/17 04:47:43;;;;;;;4.77;3.13;;;13.90;99.90;15.10;97760.00;;;;5085900;28;20595;-69
2022/07/17 04:50:32;;;;;;;4.07;3.70;;;13.90;99.90;15.10;97754.00;;;;5083355;28;20223;-70
2022/07/17 04:53:21;;;;;;;3.97;3.67;;;13.90;99.90;15.30;97753.00;;;;5087962;28;20199;-69
2022/07/17 04:56:11;;;;;;;4.00;3.67;;;14.00;99.90;15.30;97758.00;;;;5089120;28;20203;-70
2022/07/17 04:59:00;;;;;;;3.77;3.47;;;14.10;99.90;15.40;97769.00;;;;5078072;28;20215;-69
2022/07/17 05:01:50;;;;;;;5.03;3.33;;;14.10;99.90;15.30;97766.00;;;;5075357;28;20199;-69
2022/07/17 05:04:38;;;;;;;3.20;3.00;;;14.10;99.90;15.30;97759.00;;;;5088464;28;20203;-69
2022/07/17 05:07:27;;;;;;;6.40;3.83;;;14.20;99.90;15.50;97768.00;;;;5088491;28;20222;-69
2022/07/17 05:10:16;;;;;;;4.27;2.83;;;14.20;99.90;15.90;97775.00;;;;5079939;28;20702;-69
2022/07/17 05:13:06;;;;;;;3.17;2.87;;;14.30;99.90;15.90;97771.00;;;;5088581;28;20214;-69
2022/07/17 05:15:54;;;;;;;3.73;3.43;;;14.40;99.90;15.60;97762.00;;;;5089908;28;20199;-69
2022/07/17 05:18:44;;;;;;;5.03;3.80;;;14.50;99.90;15.70;97769.00;;;;5077223;28;20266;-69
2022/07/17 05:21:33;;;;;;;3.67;2.93;;;14.50;99.90;15.90;97771.00;;;;5088965;28;20682;-70
2022/07/17 05:24:22;;;;;;;3.63;3.33;;;14.60;99.90;15.90;97771.00;;;;5088382;28;20226;-69
2022/07/17 05:27:11;;;;;;;5.87;3.77;;;14.70;99.90;16.00;97765.00;;;;5089667;28;20231;-69
2022/07/17 05:29:59;;;;;;;4.00;3.60;;;14.70;99.90;16.30;97782.00;;;;5100756;28;20706;-69
2022/07/17 05:32:48;;;;;;;5.73;3.73;;;14.80;99.90;16.30;97773.00;;;;5098883;28;20206;-69
2022/07/17 05:35:38;;;;;;;3.83;3.37;;;14.90;99.90;16.50;97775.00;;;;5106137;28;20194;-68
2022/07/17 05:38:27;;;;;;;5.57;3.90;;;15.00;99.90;16.90;97780.00;;;;5109425;28;20210;-69
2022/07/17 05:41:16;;;;;;;4.00;3.40;;;15.20;99.90;17.20;97786.00;;;;5098807;28;20218;-69
2022/07/17 05:44:05;;;;;;;3.83;3.53;;;15.40;99.90;17.40;97784.00;;;;5088171;28;20203;-69
2022/07/17 05:46:54;;;;;;;4.77;3.27;;;15.50;99.90;17.80;97785.00;;;;5088532;28;20579;-69
2022/07/17 05:49:42;;;;;;;7.73;3.70;;;15.70;99.90;18.10;97790.00;;;;5095957;28;20214;-69
2022/07/17 05:52:32;;;;;;;3.50;3.20;;;16.00;99.90;18.30;97790.00;;;;5097136;28;20198;-70
2022/07/17 05:55:21;;;;;;;3.93;3.53;;;16.20;99.90;18.30;97787.00;;;;5107858;28;20206;-69
2022/07/17 05:58:11;;;;;;;6.63;4.67;;;16.40;99.90;18.50;97788.00;;;;5105599;27;20664;-69
2022/07/17 06:00:59;;;;;;;3.83;3.47;;;16.60;99.90;18.60;97781.00;;;;5108784;28;20214;-69
2022/07/17 06:03:48;;;;;;;3.40;2.87;;;16.80;99.90;18.90;97784.00;;;;5096647;28;20661;-69
2022/07/17 06:06:37;;;;;;;3.53;2.87;;;16.90;99.90;19.20;97782.00;;;;5102137;27;20248;-69
2022/07/17 06:09:27;;;;;;;3.03;2.73;;;17.10;99.90;19.40;97787.00;;;;5112286;27;20230;-69
2022/07/17 06:12:16;;;;;;;3.27;2.97;;;17.30;99.90;19.70;97790.00;;;;5112385;27;20207;-69
2022/07/17 06:15:06;;;;;;;5.50;3.43;;;17.50;99.90;19.90;97791.00;;;;5104172;27;20268;-69
2022/07/17 06:17:55;;;;;;;4.30;3.10;;;17.70;99.90;20.00;97783.00;;;;5113683;27;20205;-70
2022/07/17 06:20:43;;;;;;;6.83;3.27;;;17.90;99.90;20.20;97779.00;;;;5110396;27;20597;-69
2022/07/17 06:23:32;;;;;;;4.33;3.30;;;17.00;99.90;19.90;97786.00;;;;5113453;27;20198;-69
2022/07/17 06:26:22;;;;;;;7.37;3.53;;;18.20;99.90;20.10;97778.00;;;;5104935;28;20201;-69
2022/07/17 06:29:11;;;;;;;7.43;2.80;;;18.30;99.90;20.50;97786.00;;;;5106900;28;20230;-69
2022/07/17 06:32:00;;;;;;;5.87;3.30;;;18.40;99.90;20.70;97784.00;;;;5097189;28;20199;-69
2022/07/17 06:34:49;;;;;;;3.73;2.90;;;18.60;99.90;20.80;97783.00;;;;5119972;28;20198;-70
2022/07/17 06:37:38;;;;;;;2.90;2.60;;;18.80;99.90;20.90;97792.00;;;;5094912;28;20190;-69
2022/07/17 06:40:27;;;;;;;3.57;2.63;;;18.90;99.90;20.50;97795.00;;;;5103522;28;20227;-69
2022/07/17 06:43:17;;;;;;;2.50;2.30;;;19.00;99.90;20.10;97788.00;;;;5086218;28;20207;-67
2022/07/17 06:46:06;;;;;;;3.47;2.07;;;19.00;99.90;20.10;97793.00;;;;5092207;28;20207;-68
2022/07/17 06:48:55;;;;;;;5.30;3.03;;;19.00;99.90;19.80;97790.00;;;;5115756;27;20222;-68
2022/07/17 06:51:45;;;;;;;2.73;1.70;;;18.90;99.90;19.60;97792.00;;;;5111296;27;20216;-68
2022/07/17 06:54:34;;;;;;;1.63;1.53;;;18.80;99.90;19.80;97788.00;;;;5106008;28;20206;-67
2022/07/17 06:57:22;;;;;;;2.30;1.73;;;18.80;99.90;19.70;97787.00;;;;5116533;27;20194;-68
2022/07/17 07:00:15;;;;;;;2.53;2.00;;;18.90;99.90;19.90;97788.00;;;;5112237;27;20229;-68
2022/07/17 07:03:04;;;;;;;4.67;1.87;;;18.90;99.90;20.20;97782.00;;;;5102470;28;20206;-68
2022/07/17 07:05:52;;;;;;;3.97;1.70;;;19.00;99.90;20.20;97782.00;;;;5116086;27;20215;-68
2022/07/17 07:08:41;;;;;;;2.40;1.97;;;19.10;99.90;20.60;97789.00;;;;5110477;27;20230;-69
2022/07/17 07:11:30;;;;;;;6.77;2.00;;;19.20;99.90;20.70;97786.00;;;;5107839;28;20218;-69
2022/07/17 07:14:19;;;;;;;2.17;1.93;;;19.30;99.90;20.90;97793.00;;;;5102907;28;20198;-69
2022/07/17 07:17:09;;;;;;;4.70;1.70;;;19.40;99.90;21.60;97783.00;;;;5108025;28;20201;-69
2022/07/17 07:19:58;;;;;;;1.73;1.63;;;19.60;99.90;20.70;97784.00;;;;5106799;28;20225;-68
2022/07/17 07:22:46;;;;;;;2.10;1.60;;;19.70;99.90;20.80;97779.00;;;;5103108;28;20196;-68
2022/07/17 07:25:35;;;;;;;2.60;2.17;;;19.70;99.90;20.90;97778.00;;;;5106184;27;20202;-70
2022/07/17 07:28:24;;;;;;;4.90;1.80;;;19.80;99.90;21.00;97774.00;;;;5095066;27;20226;-69
2022/07/17 07:31:13;;;;;;;1.63;1.53;;;19.80;99.90;20.70;97774.00;;;;5102115;28;20230;-72
2022/07/17 07:34:03;;;;;;;3.83;1.60;;;19.80;99.90;21.30;97791.00;;;;5107765;28;20209;-67
2022/07/17 07:36:52;;;;;;;1.50;1.40;;;19.90;99.90;20.80;97781.00;;;;5106483;28;20214;-67
2022/07/17 07:39:41;;;;;;;1.70;1.60;;;19.90;99.90;20.80;97783.00;;;;5109420;27;20218;-71
2022/07/17 07:42:30;;;;;;;2.27;1.67;;;19.90;99.90;21.10;97783.00;;;;5106731;28;20604;-64
2022/07/17 07:45:19;;;;;;;3.03;1.60;;;20.00;99.90;21.70;97768.00;;;;5108080;28;20575;-69
2022/07/17 07:48:07;;;;;;;2.07;1.80;;;20.20;99.90;21.20;97779.00;;;;5105950;28;20574;-69
2022/07/17 07:50:59;;;;;;;1.70;1.43;;;20.30;99.90;21.80;97779.00;;;;5103528;28;20219;-68
2022/07/17 07:53:47;;;;;;;2.00;1.80;;;20.40;99.90;22.80;97784.00;;;;5102626;28;20195;-68
2022/07/17 07:56:36;;;;;;;2.73;2.07;;;20.60;99.90;23.30;97775.00;;;;5106593;28;20207;-69
2022/07/17 07:59:25;;;;;;;1.77;1.67;;;21.00;99.90;21.50;97759.00;;;;5108551;27;20206;-68
2022/07/17 08:02:13;;;;;;;3.80;1.87;;;20.90;99.90;22.30;97768.00;;;;5105951;27;20192;-69
2022/07/17 08:05:02;;;;;;;1.97;1.83;;;20.90;99.90;22.50;97778.00;;;;5102881;27;20198;-69
2022/07/17 08:07:52;;;;;;;1.77;1.67;;;20.90;99.90;22.80;97780.00;;;;5106424;27;20240;-68
2022/07/17 08:10:41;;;;;;;6.10;2.00;;;21.10;99.90;22.50;97778.00;;;;5108676;27;20731;-69
2022/07/17 08:13:32;;;;;;;1.70;1.60;;;21.10;99.90;23.10;97772.00;;;;5106667;27;20198;-71
2022/07/17 08:16:21;;;;;;;2.87;1.80;;;21.30;99.90;22.40;97773.00;;;;5108177;27;20206;-68
2022/07/17 08:19:10;;;;;;;2.43;1.93;;;21.40;99.80;23.00;97778.00;;;;5109332;27;20202;-69
2022/07/17 08:21:58;;;;;;;4.03;1.90;;;21.50;99.90;22.80;97770.00;;;;5112504;27;20214;-69
2022/07/17 08:24:48;;;;;;;2.73;1.87;;;21.40;99.60;22.40;97773.00;;;;5106842;28;20207;-68
2022/07/17 08:27:38;;;;;;;2.40;2.17;;;21.30;99.70;22.40;97775.00;;;;5103451;28;20195;-69
2022/07/17 08:30:26;;;;;;;2.33;2.00;;;21.30;99.40;22.20;97765.00;;;;5106312;28;20234;-69
2022/07/17 08:33:17;;;;;;;5.53;2.20;;;;;22.00;97755.00;;;;5106479;28;20206;-65
2022/07/17 08:36:07;;;;;;;2.23;2.03;;;;;22.00;97762.00;;;;5105606;28;20203;-68
2022/07/17 08:38:56;;;;;;;2.47;1.80;;;;;22.30;97771.00;;;;5107084;28;20558;-69
2022/07/17 08:41:47;;;;;;;3.97;2.77;;;;;22.20;97765.00;;;;5107817;27;20194;-69
2022/07/17 08:44:36;;;;;;;2.20;1.97;;;;;23.20;97771.00;;;;5107479;27;20205;-69
2022/07/17 08:47:25;;;;;;;6.50;2.20;;;;;24.20;97771.00;;;;5110615;27;20206;-70
2022/07/17 08:50:14;;;;;;;4.50;2.33;;;;;25.00;97771.00;;;;5106053;27;20708;-70
2022/07/17 08:53:05;;;;;;;3.53;2.27;;;;;25.30;97771.00;;;;5107704;27;20202;-70
2022/07/17 08:55:53;;;;;;;2.43;2.23;;;;;24.10;97767.00;;;;5101734;27;20207;-69
2022/07/17 08:58:44;;;;;;;2.87;2.57;;;;;22.80;97754.00;;;;5109219;27;20195;-68
2022/07/17 09:01:33;;;;;;;4.83;2.30;;;;;24.30;97761.00;;;;5109146;27;20237;-69
2022/07/17 09:04:22;;;;;;;2.83;1.97;;;;;23.80;97760.00;;;;5103759;28;20202;-69
2022/07/17 09:07:11;;;;;;;2.10;2.00;;;;;23.50;97758.00;;;;5106593;28;20195;-69
2022/07/17 09:10:00;;;;;;;4.43;3.17;;;;;24.40;97762.00;;;;5107838;28;20227;-69
2022/07/17 09:12:49;;;;;;;2.57;2.37;;;;;25.50;97771.00;;;;5100821;27;20202;-69
2022/07/17 09:15:40;;;;;;;4.77;2.60;;;;;25.50;97765.00;;;;5113789;27;20209;-69
2022/07/17 09:18:32;;;;;;;3.10;2.80;;;;;25.00;97758.00;;;;5110282;27;20202;-71
2022/07/17 09:21:23;;;;;;;3.10;2.40;;;;;24.40;97762.00;;;;5113870;27;20219;-70
2022/07/17 09:24:12;;;;;;;4.67;2.10;;;;;24.00;97756.00;;;;5112404;27;20206;-73
2022/07/17 09:27:01;;;;;;;4.47;2.07;;;;;24.40;97766.00;;;;5109390;27;20191;-70
2022/07/17 09:29:56;;;;;;;2.10;1.90;;;;;25.00;97766.00;;;;5114360;27;20230;-70
2022/07/17 09:32:46;;;;;;;2.63;2.40;;;;;25.40;97760.00;;;;5109307;27;20214;-69
2022/07/17 09:35:35;;;;;;;4.23;2.20;;;;;25.60;97760.00;;;;5097265;27;20203;-70
2022/07/17 09:38:29;;;;;;;2.70;2.30;;;;;25.50;97761.00;;;;5104900;27;20207;-69
2022/07/17 09:41:20;;;;;;;3.73;1.97;;;;;26.00;97757.00;;;;5116215;23;20251;-77
2022/07/17 09:44:09;;;;;;;3.97;2.27;;;;;26.30;97759.00;;;;5055176;28;20566;-76
2022/07/17 09:46:58;;;;;;;3.33;2.43;;;;;26.90;97758.00;;;;5056407;28;20206;-79
2022/07/17 09:49:48;;;;;;;3.57;1.93;;;;;26.80;97754.00;;;;5061570;28;20262;-78
2022/07/17 09:52:38;;;;;;;2.00;1.83;;;;;27.40;97756.00;;;;5048536;28;20220;-76
2022/07/17 09:55:31;;;;;;;4.93;2.17;;;25.30;92.70;27.60;97749.00;;;;5042565;28;20201;-77
2022/07/17 09:58:39;;;;;;;3.57;2.13;;;25.40;93.00;28.00;97746.00;;;;5036509;28;20796;-78
2022/07/17 10:01:28;;;;;;;3.33;2.13;;;25.60;92.00;28.50;97744.00;;;;5040796;28;20714;-77
2022/07/17 10:04:17;;;;;;;3.50;3.03;;;25.90;91.70;28.60;97745.00;;;;5038500;28;20200;-78
2022/07/17 10:07:08;;;;;;;2.60;2.40;;;26.20;91.50;28.60;97747.00;;;;5048351;28;20203;-78
2022/07/17 10:10:00;;;;;;;9.50;2.00;;;26.40;90.50;28.90;97738.00;;;;5036008;28;20714;-78
2022/07/17 10:12:51;;;;;;;1.93;1.40;;;26.50;89.60;27.90;97728.00;;;;5028803;28;20232;-77
2022/07/17 10:15:40;;;;;;;1.90;1.70;;;26.50;87.90;26.40;97720.00;;;;5046922;28;20214;-74
2022/07/17 10:18:41;;;;;;;3.10;1.77;;;26.30;84.90;27.30;97725.00;;;;5045340;28;20197;-77
2022/07/17 10:21:32;;;;;;;4.20;1.97;;;26.10;89.30;28.50;97720.00;;;;5040968;28;20717;-77
2022/07/17 10:24:23;;;;;;;2.97;2.17;;;26.20;88.80;28.70;97720.00;;;;5045269;28;20696;-76
2022/07/17 10:27:20;;;;;;;2.70;2.07;;;26.40;87.60;26.20;97707.00;;;;5035759;28;20212;-75
2022/07/17 10:30:11;;;;;;;8.10;2.57;;;26.10;80.80;28.40;97715.00;;;;5035291;28;20919;-75
2022/07/17 10:33:06;;;;;;;2.10;1.90;;;26.20;84.20;29.20;97708.00;;;;5034616;28;20644;-76
2022/07/17 10:35:55;;;;;;;1.80;1.70;;;26.50;85.10;28.30;97693.00;;;;5033188;28;20232;-72
2022/07/17 10:38:43;;;;;;;3.90;2.03;;;26.70;83.30;26.90;97700.00;;;;5030714;28;20218;-72
2022/07/17 10:41:33;;;;;;;4.87;1.73;;;26.50;81.20;25.50;97686.00;;;;5047861;28;20240;-73
2022/07/17 10:44:27;;;;;;;1.60;1.50;;;25.80;81.50;25.50;97685.00;;;;5033121;28;20218;-65
2022/07/17 10:47:15;;;;;;;3.10;2.13;;;25.40;82.70;25.60;97687.00;;;;5035723;28;20201;-73
2022/07/17 10:50:09;;;;;;;2.23;2.03;;;25.00;82.30;27.50;97691.00;;;;5027853;28;20760;-77
2022/07/17 10:53:08;;;;;;;2.57;1.97;;;25.20;86.50;28.30;97679.00;;;;5030668;28;20235;-76
2022/07/17 10:56:01;;;;;;;1.63;1.53;;;25.60;87.30;28.30;97681.00;;;;5035471;28;20212;-74
2022/07/17 10:58:53;;;;;;;2.43;2.00;;;26.00;84.00;29.20;97681.00;;;;5034546;28;20225;-73
2022/07/17 11:01:44;;;;;;;1.90;1.80;;;26.50;83.60;28.20;97673.00;;;;5029012;28;20237;-70
2022/07/17 11:04:39;;;;;;;3.77;1.70;;;26.80;80.90;26.20;97672.00;;;;5028975;28;20203;-71
2022/07/17 11:07:32;;;;;;;2.13;1.97;;;26.20;78.20;28.10;97671.00;;;;5027630;28;20207;-76
2022/07/17 11:10:22;;;;;;;3.17;1.80;;;26.10;83.50;29.20;97659.00;;;;5028821;28;20226;-77
2022/07/17 11:13:13;;;;;;;4.40;2.63;;;26.40;83.70;30.10;97659.00;;;;5028115;28;20228;-77
2022/07/17 11:16:03;;;;;;;4.00;3.70;;;26.90;83.20;30.60;97645.00;;;;5030315;28;20749;-77
2022/07/17 11:18:52;;;;;;;20.93;19.43;;;27.40;81.10;29.30;97644.00;;;;5028484;28;20806;-74
2022/07/17 11:21:47;;;;;;;62.97;58.67;;;27.80;75.90;29.30;97634.00;;;;5034990;28;20231;-78
2022/07/17 11:24:40;;;;;;;6.23;5.77;;;27.70;76.60;30.60;97643.00;;;;5029628;28;20233;-78
2022/07/17 11:27:31;;;;;;;10.23;9.63;;;28.00;77.80;31.30;97642.00;;;;5035927;28;20293;-78
2022/07/17 11:30:23;;;;;;;4.20;2.85;;;28.30;77.00;31.40;97651.00;;;;5040327;28;20416;-77
2022/07/17 11:33:17;;;;;;;2.30;1.90;;;28.60;75.80;31.40;97651.00;;;;5036484;28;20243;-78
2022/07/17 11:36:07;;;;;;;4.30;2.13;;;29.00;74.90;31.20;97636.00;;;;5036863;28;20204;-78
2022/07/17 11:38:58;;;;;;;6.33;2.47;;;29.10;72.40;32.00;97640.00;;;;5035764;28;20201;-76
2022/07/17 11:41:52;;;;;;;5.03;2.17;;;29.30;72.60;32.00;97644.00;;;;5036930;28;20232;-77
2022/07/17 11:44:41;;;;;;;8.83;4.97;;;29.50;69.80;32.40;97652.00;;;;5034832;28;20208;-76
2022/07/17 11:47:30;;;;;;;10.65;8.68;;;29.70;72.10;32.20;97642.00;;;;5038753;28;20705;-77
2022/07/17 11:50:20;;;;;;;71.47;53.40;;;29.80;70.50;31.90;97636.00;;;;5039245;28;20200;-77
2022/07/17 11:53:09;;;;;;;26.75;23.88;;;29.80;69.20;30.40;97631.00;;;;5033174;28;20239;-75
2022/07/17 11:55:58;;;;;;;44.33;39.83;;;29.80;70.10;29.90;97616.00;;;;5041872;28;20212;-76
2022/07/17 11:58:48;;;;;;;460.02;367.10;;;29.50;66.20;30.90;97616.00;;;;5037082;28;20206;-75
2022/07/17 12:01:43;;;;;;;52.58;41.88;;;29.40;69.10;29.50;97619.00;;;;5036019;28;20739;-74
2022/07/17 12:04:32;;;;;;;514.03;460.47;;;29.00;66.00;31.80;97635.00;;;;5033047;28;20211;-74
2022/07/17 12:07:23;;;;;;;58.13;52.03;;;29.10;70.30;32.10;97602.00;;;;5036065;28;20204;-76
2022/07/17 12:10:18;;;;;;;8.10;7.18;;;29.40;67.50;31.30;97601.00;;;;5034939;28;20201;-68
2022/07/17 12:13:08;;;;;;;3.43;1.83;;;29.70;65.10;28.40;97592.00;;;;5041290;28;20601;-75
2022/07/17 12:15:57;;;;;;;1.60;1.50;;;28.80;64.50;29.10;97605.00;;;;5034242;28;20260;-76
2022/07/17 12:19:04;;;;;;;3.33;1.57;;;28.20;68.10;31.30;97606.00;;;;5038773;28;20201;-76
2022/07/17 12:21:56;;;;;;;2.47;1.60;;;28.60;69.80;29.60;97591.00;;;;5032813;28;20709;-75
2022/07/17 12:24:47;;;;;;;3.87;1.80;;;28.80;67.40;27.80;97579.00;;;;5035752;28;20218;-77
2022/07/17 12:27:36;;;;;;;2.47;1.87;;;28.20;64.00;30.60;97583.00;;;;5036770;28;20232;-75
2022/07/17 12:30:25;;;;;;;4.27;1.83;;;28.20;68.50;32.40;97588.00;;;;5036299;28;20214;-76
2022/07/17 12:33:13;;;;;;;2.77;2.10;;;28.70;70.20;32.90;97582.00;;;;5039500;28;20257;-76
2022/07/17 12:36:02;;;;;;;2.63;1.95;;;29.40;68.90;32.80;97586.00;;;;5035527;28;20899;-76
2022/07/17 12:38:51;;;;;;;3.17;1.70;;;29.90;67.10;30.50;97587.00;;;;5036888;28;20204;-76
2022/07/17 12:41:42;;;;;;;2.97;1.67;;;29.70;63.70;31.40;97582.00;;;;5038321;28;20232;-76
2022/07/17 12:44:31;;;;;;;4.22;2.10;;;29.20;65.00;32.50;97572.00;;;;5035389;28;20210;-74